Estació municipal de Seva (Osona, P.N. del Montseny)

Consulta les dades en temps real de l'estació municipal de Seva





Hora UTC 04:30
Temperatura 11.9 ºC
Sòl 15 cm 10.9 ºC
Humitat 87.1 %
Pressió 1018.7 hPa
Pluja 0.0 mm
Velocitat vent 1.8 km/h
Direcció vent SSW
Radiació solar 0.1 W/m²

Webcam

Dades diàries 2026-05-03



Hora UTC (hivern +1h; estiu +2h)
Temperatura (ºC) Humitat (%) Pressió (hPa) Velocitat vent (km/h) Precipitació (mm) Radiació solar (W/m²)
Hora UTC Aire Sòl 15 cm Humitat Pressió Vel. Dir. Vel. Max Dir. Intent. màx 5 min. Rad. Sol.
00:05 12.6 12.0 88.4 1020.6 2.9 S 2.9 SSE 0.0 0.1
00:10 12.6 12.0 88.7 1020.5 2.4 SSW 6.0 S 0.0 0.0
00:15 12.6 11.9 89.0 1020.4 0.9 SSE 3.2 SSE 0.0 0.1
00:20 12.6 12.0 89.2 1020.4 3.0 SSE 6.4 S 0.0 0.1
00:25 12.6 12.0 89.3 1020.3 2.6 SSE 6.0 SSE 0.0 0.0
00:30 12.7 12.0 89.5 1020.2 4.5 SE 7.8 SSE 0.0 0.1
00:35 12.7 12.0 89.8 1020.1 4.1 SSE 9.9 SSE 0.0 0.1
00:40 12.7 12.1 89.9 1020.1 4.4 S 9.2 S 0.0 0.0
00:45 12.7 12.1 90.0 1020.1 2.5 S 6.7 S 0.0 0.0
00:50 12.7 12.1 90.0 1020.0 2.3 S 6.7 S 0.0 0.1
00:55 12.7 12.1 89.9 1019.9 1.5 S 5.3 S 0.0 0.1
01:00 12.7 12.1 89.4 1019.8 3.8 S 8.8 S 0.0 0.0
01:05 12.7 12.1 89.0 1019.7 3.4 S 8.1 SSE 0.0 0.1
01:10 12.8 12.1 88.8 1019.7 3.1 SSW 8.8 SSW 0.0 0.1
01:15 12.8 12.1 89.0 1019.7 4.8 S 9.9 SSE 0.0 0.1
01:20 12.7 12.1 89.4 1019.7 3.8 SSE 9.9 S 0.0 0.0
01:25 12.7 12.1 89.6 1019.6 4.8 SSE 8.5 SSE 0.0 0.1
01:30 12.7 12.1 89.8 1019.7 3.9 S 6.7 SSE 0.0 0.1
01:35 12.7 12.0 89.9 1019.6 1.6 SE 7.8 S 0.0 0.1
01:40 12.7 12.0 89.6 1019.4 1.7 ESE 5.3 S 0.0 0.1
01:45 12.6 12.0 88.8 1019.4 1.8 SE 5.6 ESE 0.0 0.0
01:50 12.6 11.8 88.1 1019.4 1.7 SSW 3.5 SSW 0.0 0.1
01:55 12.6 11.8 88.1 1019.3 1.7 S 4.6 SSW 0.0 0.0
02:00 12.6 11.8 88.3 1019.3 1.3 SSW 5.6 SSW 0.0 0.1
02:05 12.6 11.8 87.9 1019.2 2.0 E 4.2 E 0.0 0.0
02:10 12.4 11.8 84.6 1019.2 1.3 ENE 4.9 ENE 0.0 0.0
02:15 12.4 11.7 81.8 1019.2 2.1 E 3.9 ENE 0.0 0.1
02:20 12.4 11.7 80.9 1019.2 1.3 NE 3.2 NE 0.0 0.1
02:25 12.4 11.6 80.5 1019.1 1.3 ENE 3.2 ENE 0.0 0.1
02:30 12.4 11.6 81.0 1019.0 0.4 ENE 1.8 E 0.0 0.1
02:35 12.3 11.6 81.2 1019.1 0.6 WSW 2.5 SW 0.0 0.1
02:40 12.4 11.6 81.1 1019.0 2.5 W 4.2 WSW 0.0 0.1
02:45 12.5 11.7 80.8 1019.1 3.9 WSW 5.3 WSW 0.0 0.0
02:50 12.4 11.8 81.3 1019.3 4.7 W 9.5 WNW 0.0 0.0
02:55 12.4 11.9 85.5 1019.3 6.4 WSW 10.2 WSW 0.0 0.1
03:00 12.6 12.0 90.0 1019.3 5.6 WSW 11.6 SW 0.0 0.1
03:05 12.5 12.0 89.9 1019.2 5.5 WSW 10.2 W 0.0 0.0
03:10 12.5 11.9 89.4 1019.2 1.6 SW 3.9 SW 0.0 0.1
03:15 12.4 11.9 88.6 1019.1 3.3 SW 6.7 WSW 0.0 0.1
03:20 12.5 11.8 88.3 1019.1 1.7 SW 4.9 SSW 0.0 0.0
03:25 12.4 11.8 87.7 1019.0 2.7 S 6.0 SSE 0.0 0.1
03:30 12.3 11.7 86.8 1019.1 3.8 SSW 7.1 SW 0.0 0.1
03:35 12.3 11.7 85.5 1019.0 2.6 S 6.0 SSW 0.0 0.1
03:40 12.2 11.6 84.5 1019.0 3.6 SSW 7.2 SSW 0.0 0.1
03:45 12.2 11.5 84.3 1019.0 2.2 SSW 5.8 SW 0.0 0.0
03:50 12.2 11.5 84.4 1019.0 3.5 SSW 8.5 WSW 0.0 0.1
03:55 12.1 11.4 84.5 1018.9 2.5 S 7.1 S 0.0 0.0
04:00 12.1 11.4 84.9 1018.9 1.5 S 3.9 S 0.0 0.1
04:05 12.1 11.3 85.2 1019.0 2.6 SSW 6.0 SSW 0.0 0.1
04:10 12.1 11.3 85.7 1018.9 2.1 SW 4.2 SW 0.0 0.1
04:15 12.1 11.3 86.1 1018.9 2.0 SSW 4.9 SSW 0.0 0.1
04:20 12.0 11.2 86.5 1018.8 2.9 SSW 4.9 SSW 0.0 0.1
04:25 12.0 11.1 86.9 1018.8 1.8 SSW 3.5 SSW 0.0 0.1
04:30 11.9 10.9 87.1 1018.7 1.8 SSW 3.5 S 0.0 0.1
Màxima 12.8 12.1 90.0 1020.6 6.4 WSW 11.6 SW 0.0 0.1
Mínima 11.9 10.9 80.5 1018.7
Total 0.0